»·PEaware :: SKW5420 KLAS-KPHX

SKW5420 :: KLAS-KPHX

FLIGHT INFORMATION

Flight Status: Arrived
Operator:
SkyWest Airlines
More flights by this operator :: More flights under this callsign
Pilot: Kevin M. (7)
Aircraft: CANADAIR CL-600 CRJ-200
(CRJ2)
More flights by this aircraft type
Origin: KLAS McCarran Intl
United States
Destination: KPHX Phoenix Sky Harbor Intl
United States
More flights between these airports :: More routes between these airports
Route: HOOVR3 DRK COYOT3
File this flight plan on PilotEdge
Remarks: Back at it
Altitude:
(Current/Filed)
27,000ft
Speed:
(Current/Filed)
320kts
Departed: 11-Jan-17 03:10 PM
Arrived: 11-Jan-17 03:58 PM
Distance/Time
Traveled:
222nm/0:48
Distance/Time
To Go:
Arrived

Flight Plot

Page will automatically refresh every two minutes.

Flight plan parsing failed; only flown route is shown


Map Options




Map Legend


Flown Route
Filed Route
Departure Airport
Arrival Airport
Navaid (VOR, NDB)
Fix

Horizontal Profiles

Position Reports

Time Latitude Longitude Heading Altitude Ground
Speed
11-Jan-17 14:44 36.081275 -115.139931 135 2146ft 0kts
11-Jan-17 14:45 36.081275 -115.139931 135 2146ft 0kts
11-Jan-17 14:46 36.081275 -115.139931 135 2146ft 0kts
11-Jan-17 14:47 36.081275 -115.139931 135 2146ft 0kts
11-Jan-17 14:48 36.081275 -115.139931 135 2146ft 0kts
11-Jan-17 14:49 36.081275 -115.139931 135 2146ft 0kts
11-Jan-17 14:50 36.081275 -115.139931 135 2146ft 0kts
11-Jan-17 14:51 36.081275 -115.139931 135 2146ft 0kts
11-Jan-17 14:52 36.081803 -115.140517 156 2146ft 2kts
11-Jan-17 14:53 36.081882 -115.140500 224 2146ft 0kts
11-Jan-17 14:54 36.081882 -115.140500 224 2146ft 0kts
11-Jan-17 14:55 36.081882 -115.140500 224 2146ft 0kts
11-Jan-17 14:56 36.081882 -115.140500 224 2146ft 0kts
11-Jan-17 14:57 36.081882 -115.140500 224 2146ft 0kts
11-Jan-17 14:58 36.081271 -115.141204 223 2146ft 12kts
11-Jan-17 14:59 36.079262 -115.141631 180 2146ft 10kts
11-Jan-17 15:00 36.078232 -115.138425 90 2146ft 13kts
11-Jan-17 15:01 36.078228 -115.133274 93 2146ft 15kts
11-Jan-17 15:02 36.078234 -115.128831 91 2146ft 9kts
11-Jan-17 15:03 36.078262 -115.124777 89 2146ft 9kts
11-Jan-17 15:04 36.077956 -115.122298 129 2146ft 3kts
11-Jan-17 15:05 36.077758 -115.122000 130 2146ft 1kts
11-Jan-17 15:06 36.077354 -115.121417 144 2146ft 0kts
11-Jan-17 15:07 36.077354 -115.121417 144 2146ft 0kts
11-Jan-17 15:08 36.077354 -115.121417 144 2146ft 0kts
11-Jan-17 15:09 36.076408 -115.121849 268 2146ft 0kts
11-Jan-17 15:10 36.076440 -115.140776 266 2336ft 152kts
11-Jan-17 15:11 36.083660 -115.203023 280 4812ft 215kts
11-Jan-17 15:12 36.061124 -115.267109 202 7537ft 260kts
11-Jan-17 15:13 35.989475 -115.298137 197 10280ft 294kts
11-Jan-17 15:14 35.934761 -115.229370 101 12285ft 347kts
11-Jan-17 15:15 35.920845 -115.107311 82 14230ft 374kts
11-Jan-17 15:16 35.923995 -114.979634 89 16910ft 367kts
11-Jan-17 15:17 35.918241 -114.859993 122 19854ft 337kts
11-Jan-17 15:18 35.861619 -114.770329 124 21911ft 333kts
11-Jan-17 15:19 35.813752 -114.674382 125 23875ft 327kts
11-Jan-17 15:20 35.767702 -114.580479 131 25805ft 314kts
11-Jan-17 15:21 35.722921 -114.489795 136 26910ft 323kts
11-Jan-17 15:22 35.672724 -114.388703 134 26951ft 373kts
11-Jan-17 15:23 35.614596 -114.271372 132 26994ft 434kts
11-Jan-17 15:24 35.548551 -114.138385 131 27002ft 478kts
11-Jan-17 15:25 35.476882 -113.994763 130 27001ft 511kts
11-Jan-17 15:26 35.402581 -113.845960 130 26991ft 531kts
11-Jan-17 15:27 35.325233 -113.692025 130 27001ft 529kts
11-Jan-17 15:28 35.249069 -113.541392 130 26989ft 520kts
11-Jan-17 15:29 35.174512 -113.394876 128 27035ft 489kts
11-Jan-17 15:30 35.106029 -113.260851 120 27000ft 447kts
11-Jan-17 15:31 35.097860 -113.244712 120 26994ft 443kts
11-Jan-17 15:32 35.044253 -113.139603 120 27013ft 423kts
11-Jan-17 15:33 34.983813 -113.021871 120 27045ft 419kts
11-Jan-17 15:34 34.921653 -112.901223 120 27046ft 436kts
11-Jan-17 15:35 34.857069 -112.775593 121 27048ft 448kts
11-Jan-17 15:36 34.791125 -112.648487 121 27047ft 454kts
11-Jan-17 15:37 34.724153 -112.519893 121 27046ft 456kts
11-Jan-17 15:38 34.636415 -112.415590 139 27028ft 460kts
11-Jan-17 15:39 34.539200 -112.320635 139 25773ft 446kts
11-Jan-17 15:40 34.445058 -112.233691 163 22617ft 420kts
11-Jan-17 15:41 34.337124 -112.202010 173 19576ft 414kts
11-Jan-17 15:42 34.226159 -112.173307 173 16427ft 409kts
11-Jan-17 15:43 34.117144 -112.145244 171 13314ft 400kts
11-Jan-17 15:44 34.015635 -112.119089 171 12036ft 360kts
11-Jan-17 15:45 33.921252 -112.094831 171 11010ft 329kts
11-Jan-17 15:46 33.835822 -112.072968 170 9584ft 305kts
11-Jan-17 15:47 33.760400 -112.066197 209 8513ft 254kts
11-Jan-17 15:48 33.699856 -112.103945 209 7011ft 237kts
11-Jan-17 15:49 33.645231 -112.139537 209 5548ft 229kts
11-Jan-17 15:50 33.591011 -112.176091 209 5014ft 224kts
11-Jan-17 15:51 33.538653 -112.211620 209 5023ft 224kts
11-Jan-17 15:52 33.483609 -112.249825 210 5026ft 242kts
11-Jan-17 15:53 33.436035 -112.250057 103 4477ft 218kts
11-Jan-17 15:54 33.449755 -112.176821 106 3269ft 251kts
11-Jan-17 15:55 33.441358 -112.104290 90 2297ft 171kts
11-Jan-17 15:56 33.440851 -112.055205 90 1516ft 137kts
11-Jan-17 15:57 33.440837 -112.013058 89 1140ft 87kts
11-Jan-17 15:58 33.439048 -112.001131 226 1139ft 14kts

Navigation Log

Ident Type
Flight plan parsing failed, navigation log unavailable